createdAt,value
2018-09-21T00:02:08.925Z,99172.00
2018-09-21T00:04:37.075Z,99172.00
2018-09-21T00:07:05.172Z,99173.00
2018-09-21T00:09:33.369Z,99177.00
2018-09-21T00:12:01.502Z,99171.00
2018-09-21T00:14:29.613Z,99170.00
2018-09-21T00:16:57.789Z,99164.00
2018-09-21T00:19:25.881Z,99158.00
2018-09-21T00:21:53.958Z,99156.00
2018-09-21T00:24:22.180Z,99157.00
2018-09-21T00:26:50.803Z,99149.00
2018-09-21T00:29:19.069Z,99141.00
2018-09-21T00:31:47.353Z,99145.00
2018-09-21T00:34:15.771Z,99144.00
2018-09-21T00:36:43.904Z,99143.00
2018-09-21T00:39:12.388Z,99140.00
2018-09-21T00:41:41.569Z,99142.00
2018-09-21T00:44:09.695Z,99140.00
2018-09-21T00:46:37.944Z,99134.00
2018-09-21T00:49:11.465Z,99130.00
2018-09-21T00:51:39.635Z,99126.00
2018-09-21T00:54:07.758Z,99122.00
2018-09-21T00:56:35.857Z,99119.00
2018-09-21T00:59:04.121Z,99120.00
2018-09-21T01:01:32.326Z,99120.00
2018-09-21T01:04:00.341Z,99118.00
2018-09-21T01:06:28.525Z,99115.00
2018-09-21T01:08:57.307Z,99117.00
2018-09-21T01:11:25.488Z,99116.00
2018-09-21T01:13:53.803Z,99115.00
2018-09-21T01:16:21.826Z,99118.00
2018-09-21T01:18:49.982Z,99118.00
2018-09-21T01:21:18.175Z,99121.00
2018-09-21T01:23:46.348Z,99123.00
2018-09-21T01:26:14.724Z,99118.00
2018-09-21T01:28:42.890Z,99112.00
2018-09-21T01:31:10.937Z,99111.00
2018-09-21T01:33:39.035Z,99107.00
2018-09-21T01:36:07.219Z,99108.00
2018-09-21T01:38:35.434Z,99108.00
2018-09-21T01:41:03.650Z,99100.00
2018-09-21T01:43:31.838Z,99101.00
2018-09-21T01:45:59.929Z,99101.00
2018-09-21T01:48:28.036Z,99100.00
2018-09-21T01:50:56.631Z,99100.00
2018-09-21T01:53:24.673Z,99094.00
2018-09-21T01:55:52.908Z,99094.00
2018-09-21T01:58:21.205Z,99086.00
2018-09-21T02:00:49.752Z,99085.00
2018-09-21T02:03:17.874Z,99088.00
2018-09-21T02:05:46.002Z,99087.00
2018-09-21T02:08:14.058Z,99084.00
2018-09-21T02:10:42.191Z,99083.00
2018-09-21T02:13:10.399Z,99084.00
2018-09-21T02:15:38.525Z,99082.00
2018-09-21T02:18:06.710Z,99079.00
2018-09-21T02:20:34.791Z,99075.00
2018-09-21T02:23:02.899Z,99071.00
2018-09-21T02:25:31.057Z,99068.00
2018-09-21T02:27:59.119Z,99072.00
2018-09-21T02:30:27.250Z,99073.00
2018-09-21T02:32:55.427Z,99074.00
2018-09-21T02:35:23.568Z,99069.00
2018-09-21T02:37:56.670Z,99072.00
2018-09-21T02:40:25.239Z,99074.00
2018-09-21T02:42:53.376Z,99071.00
2018-09-21T02:45:21.544Z,99077.00
2018-09-21T02:47:49.691Z,99064.00
2018-09-21T02:50:17.925Z,99066.00
2018-09-21T02:52:46.084Z,99058.00
2018-09-21T02:55:14.314Z,99052.00
2018-09-21T02:57:42.471Z,99053.00
2018-09-21T03:00:10.560Z,99057.00
2018-09-21T03:02:38.705Z,99062.00
2018-09-21T03:05:07.422Z,99055.00
2018-09-21T03:07:35.514Z,99056.00
2018-09-21T03:10:03.696Z,99062.00
2018-09-21T03:12:31.844Z,99057.00
2018-09-21T03:14:59.926Z,99050.00
2018-09-21T03:17:28.108Z,99041.00
2018-09-21T03:19:56.200Z,99042.00
2018-09-21T03:22:24.314Z,99036.00
2018-09-21T03:24:52.533Z,99034.00
2018-09-21T03:27:20.673Z,99032.00
2018-09-21T03:29:48.873Z,99023.00
2018-09-21T03:32:17.027Z,99018.00
2018-09-21T03:34:45.146Z,99016.00
2018-09-21T03:37:13.232Z,99020.00
2018-09-21T03:39:41.354Z,99014.00
2018-09-21T03:42:09.535Z,99007.00
2018-09-21T03:44:38.107Z,99003.00
2018-09-21T03:47:06.204Z,99003.00
2018-09-21T03:49:34.349Z,98996.00
2018-09-21T03:52:02.394Z,99000.00
2018-09-21T03:54:30.480Z,98995.00
2018-09-21T03:56:58.648Z,98991.00
2018-09-21T03:59:26.885Z,98993.00
2018-09-21T04:01:55.099Z,98994.00
2018-09-21T04:04:23.390Z,98989.00
2018-09-21T04:06:51.533Z,98991.00
2018-09-21T04:09:19.788Z,98994.00
2018-09-21T04:11:47.960Z,98992.00
2018-09-21T04:14:16.034Z,98990.00
2018-09-21T04:16:44.105Z,98989.00
2018-09-21T04:19:12.324Z,98988.00
2018-09-21T04:21:40.419Z,98987.00
2018-09-21T04:24:08.621Z,98981.00
2018-09-21T04:26:36.660Z,98973.00
2018-09-21T04:29:04.967Z,98966.00
2018-09-21T04:31:33.213Z,98969.00
2018-09-21T04:34:01.420Z,98970.00
2018-09-21T04:36:29.533Z,98969.00
2018-09-21T04:38:58.285Z,98980.00
2018-09-21T04:41:26.342Z,98978.00
2018-09-21T04:43:55.207Z,98982.00
2018-09-21T04:46:23.277Z,98981.00
2018-09-21T04:48:51.470Z,98981.00
2018-09-21T04:51:19.704Z,98977.00
2018-09-21T04:53:47.869Z,98972.00
2018-09-21T04:56:16.027Z,98964.00
2018-09-21T04:58:44.357Z,98956.00
2018-09-21T05:01:12.968Z,98950.00
2018-09-21T05:03:41.146Z,98957.00
2018-09-21T05:06:09.342Z,98958.00
2018-09-21T05:08:37.486Z,98958.00
2018-09-21T05:11:05.774Z,98963.00
2018-09-21T05:13:34.056Z,98962.00
2018-09-21T05:16:02.260Z,98963.00
2018-09-21T05:18:30.492Z,98969.00
2018-09-21T05:20:58.727Z,98973.00
2018-09-21T05:23:26.910Z,98971.00
2018-09-21T05:25:55.136Z,98965.00
2018-09-21T05:28:23.432Z,98965.00
2018-09-21T05:30:51.556Z,98969.00
2018-09-21T05:33:19.735Z,98965.00
2018-09-21T05:35:47.854Z,98964.00
2018-09-21T05:38:15.969Z,98959.00
2018-09-21T05:40:44.079Z,98953.00
2018-09-21T05:43:12.434Z,98952.00
2018-09-21T05:45:40.712Z,98951.00
2018-09-21T05:48:08.949Z,98955.00
2018-09-21T05:50:37.070Z,98958.00
2018-09-21T05:53:05.902Z,98960.00
2018-09-21T05:55:34.047Z,98954.00
2018-09-21T05:58:02.528Z,98951.00
2018-09-21T06:00:30.923Z,98944.00
2018-09-21T06:02:59.160Z,98936.00
2018-09-21T06:05:27.393Z,98936.00
2018-09-21T06:07:55.575Z,98938.00
2018-09-21T06:10:23.828Z,98934.00
2018-09-21T06:12:52.973Z,98930.00
2018-09-21T06:15:21.139Z,98932.00
2018-09-21T06:17:49.263Z,98935.00
2018-09-21T06:20:17.363Z,98937.00
2018-09-21T06:22:45.581Z,98930.00
2018-09-21T06:25:14.018Z,98930.00
2018-09-21T06:27:42.083Z,98910.00
2018-09-21T06:30:10.180Z,98923.00
2018-09-21T06:32:38.416Z,98917.00
2018-09-21T06:35:06.637Z,98917.00
2018-09-21T06:37:34.867Z,98917.00
2018-09-21T06:40:03.112Z,98913.00
2018-09-21T06:42:31.313Z,98917.00
2018-09-21T06:44:59.663Z,98920.00
2018-09-21T06:47:27.780Z,98914.00
2018-09-21T06:49:56.006Z,98922.00
2018-09-21T06:52:24.279Z,98926.00
2018-09-21T06:54:52.487Z,98930.00
2018-09-21T06:57:20.857Z,98923.00
2018-09-21T06:59:49.184Z,98886.00
2018-09-21T07:02:17.345Z,98892.00
2018-09-21T07:04:45.490Z,98925.00
2018-09-21T07:07:13.565Z,98911.00
2018-09-21T07:09:41.695Z,98906.00
2018-09-21T07:12:09.895Z,98896.00
2018-09-21T07:14:38.055Z,98891.00
2018-09-21T07:17:06.287Z,98873.00
2018-09-21T07:19:34.506Z,98869.00
2018-09-21T07:22:02.623Z,98865.00
2018-09-21T07:24:31.418Z,98857.00
2018-09-21T07:26:59.546Z,98839.00
2018-09-21T07:29:27.638Z,98833.00
2018-09-21T07:31:55.716Z,98839.00
2018-09-21T07:34:23.774Z,98827.00
2018-09-21T07:36:51.988Z,98821.00
2018-09-21T07:39:20.640Z,98799.00
2018-09-21T07:41:48.868Z,98812.00
2018-09-21T07:44:17.122Z,98804.00
2018-09-21T07:46:45.265Z,98792.00
2018-09-21T07:49:13.390Z,98789.00
2018-09-21T07:51:41.464Z,98782.00
2018-09-21T07:54:10.191Z,98789.00
2018-09-21T07:56:38.349Z,98787.00
2018-09-21T07:59:06.884Z,98779.00
2018-09-21T08:01:34.992Z,98776.00
2018-09-21T08:04:03.152Z,98781.00
2018-09-21T08:06:31.214Z,98784.00
2018-09-21T08:08:59.280Z,98789.00
2018-09-21T08:11:27.573Z,98800.00
2018-09-21T08:13:55.953Z,98823.00
2018-09-21T08:16:24.160Z,98804.00
2018-09-21T08:18:52.377Z,98784.00
2018-09-21T08:21:20.632Z,98787.00
2018-09-21T08:23:48.926Z,98783.00
2018-09-21T08:26:17.117Z,98786.00
2018-09-21T08:28:45.346Z,98781.00
2018-09-21T08:31:13.642Z,98784.00
2018-09-21T08:33:41.841Z,98786.00
2018-09-21T08:36:10.033Z,98785.00
2018-09-21T08:38:38.826Z,98777.00
2018-09-21T08:41:07.066Z,98771.00
2018-09-21T08:43:35.141Z,98762.00
2018-09-21T08:46:03.361Z,98768.00
2018-09-21T08:48:31.634Z,98766.00
2018-09-21T08:50:59.856Z,98784.00
2018-09-21T08:53:28.072Z,98769.00
2018-09-21T08:55:56.139Z,98764.00
2018-09-21T08:58:24.353Z,98753.00
2018-09-21T09:00:52.462Z,98750.00
2018-09-21T09:03:20.600Z,98758.00
2018-09-21T09:05:52.125Z,98764.00
2018-09-21T09:08:21.402Z,98753.00
2018-09-21T09:10:49.606Z,98741.00
2018-09-21T09:13:18.676Z,98744.00
2018-09-21T09:15:47.075Z,98740.00
2018-09-21T09:18:15.138Z,98737.00
2018-09-21T09:20:43.429Z,98740.00
2018-09-21T09:23:11.674Z,98737.00
2018-09-21T09:25:39.845Z,98735.00
2018-09-21T09:28:08.094Z,98730.00
2018-09-21T09:30:37.124Z,98724.00
2018-09-21T09:33:05.592Z,98722.00
2018-09-21T09:35:34.761Z,98715.00
2018-09-21T09:38:02.875Z,98718.00
2018-09-21T09:40:31.044Z,98718.00
2018-09-21T09:42:59.364Z,98704.00
2018-09-21T09:45:27.471Z,98697.00
2018-09-21T09:47:55.718Z,98694.00
2018-09-21T09:50:23.825Z,98688.00
2018-09-21T09:52:52.390Z,98683.00
2018-09-21T09:55:20.552Z,98695.00
2018-09-21T09:57:48.789Z,98699.00
2018-09-21T10:00:21.420Z,98686.00
2018-09-21T10:02:49.562Z,98683.00
2018-09-21T10:05:17.779Z,98677.00
2018-09-21T10:07:46.371Z,98677.00
2018-09-21T10:10:14.520Z,98675.00
2018-09-21T10:12:42.617Z,98671.00
2018-09-21T10:15:10.789Z,98668.00
2018-09-21T10:17:38.941Z,98668.00
2018-09-21T10:20:07.262Z,98680.00
2018-09-21T10:22:35.556Z,98666.00
2018-09-21T10:25:03.756Z,98674.00
2018-09-21T10:27:32.135Z,98666.00
2018-09-21T10:30:00.168Z,98670.00
2018-09-21T10:32:28.478Z,98678.00
2018-09-21T10:34:57.279Z,98666.00
2018-09-21T10:37:25.323Z,98661.00
2018-09-21T10:39:53.424Z,98665.00
2018-09-21T10:42:22.597Z,98662.00
2018-09-21T10:44:50.631Z,98658.00
2018-09-21T10:47:18.978Z,98657.00
2018-09-21T10:49:47.353Z,98655.00
2018-09-21T10:52:15.433Z,98667.00
2018-09-21T10:54:43.642Z,98657.00
2018-09-21T10:57:11.814Z,98662.00
2018-09-21T10:59:40.049Z,98660.00
2018-09-21T11:02:08.260Z,98651.00
2018-09-21T11:04:36.428Z,98662.00
2018-09-21T11:07:04.518Z,98646.00
2018-09-21T11:09:32.584Z,98642.00
2018-09-21T11:12:00.780Z,98639.00
2018-09-21T11:14:29.255Z,98643.00
2018-09-21T11:16:57.378Z,98643.00
2018-09-21T11:19:25.514Z,98647.00
2018-09-21T11:21:53.756Z,98655.00
2018-09-21T11:24:22.007Z,98643.00
2018-09-21T11:26:50.112Z,98640.00
2018-09-21T11:29:18.266Z,98634.00
2018-09-21T11:31:46.396Z,98619.00
2018-09-21T11:34:14.623Z,98625.00
2018-09-21T11:36:42.815Z,98630.00
2018-09-21T11:39:11.602Z,98624.00
2018-09-21T11:41:40.182Z,98618.00
2018-09-21T11:44:08.842Z,98614.00
2018-09-21T11:46:37.033Z,98610.00
2018-09-21T11:49:05.227Z,98608.00
2018-09-21T11:51:33.424Z,98597.00
2018-09-21T11:54:01.782Z,98593.00
2018-09-21T11:56:30.133Z,98588.00
2018-09-21T11:58:58.394Z,98583.00
2018-09-21T12:01:26.569Z,98588.00
2018-09-21T12:03:54.881Z,98579.00
2018-09-21T12:06:23.252Z,98589.00
2018-09-21T12:08:51.413Z,98600.00
2018-09-21T12:11:19.652Z,98561.00
2018-09-21T12:13:47.905Z,98569.00
2018-09-21T12:16:16.081Z,98576.00
2018-09-21T12:18:44.159Z,98581.00
2018-09-21T12:21:12.376Z,98582.00
2018-09-21T12:23:40.506Z,98588.00
2018-09-21T12:26:08.821Z,98600.00
2018-09-21T12:28:36.937Z,98607.00
2018-09-21T12:31:05.241Z,98608.00
2018-09-21T12:33:33.628Z,98610.00
2018-09-21T12:36:02.763Z,98609.00
2018-09-21T12:38:30.872Z,98611.00
2018-09-21T12:40:58.976Z,98602.00
2018-09-21T12:43:27.776Z,98599.00
2018-09-21T12:45:56.698Z,98602.00
2018-09-21T12:48:24.753Z,98590.00
2018-09-21T12:50:53.142Z,98598.00
2018-09-21T12:53:21.301Z,98590.00
2018-09-21T12:55:49.404Z,98591.00
2018-09-21T12:58:18.015Z,98591.00
2018-09-21T13:00:50.340Z,98599.00
2018-09-21T13:03:18.921Z,98589.00
2018-09-21T13:05:49.390Z,98613.00
2018-09-21T13:08:17.632Z,98603.00
2018-09-21T13:10:45.844Z,98606.00
2018-09-21T13:13:14.189Z,98611.00
2018-09-21T13:15:42.334Z,98618.00
2018-09-21T13:18:11.119Z,98610.00
2018-09-21T13:20:39.738Z,98619.00
2018-09-21T13:23:07.941Z,98617.00
2018-09-21T13:25:36.223Z,98629.00
2018-09-21T13:28:04.508Z,98630.00
2018-09-21T13:30:32.712Z,98628.00
2018-09-21T13:33:01.104Z,98627.00
2018-09-21T13:35:29.675Z,98640.00
2018-09-21T13:37:58.157Z,98638.00
2018-09-21T13:40:26.449Z,98646.00
2018-09-21T13:42:54.472Z,98658.00
2018-09-21T13:45:22.677Z,98648.00
2018-09-21T13:47:51.545Z,98660.00
2018-09-21T13:50:20.258Z,98627.00
2018-09-21T13:52:48.420Z,98631.00
2018-09-21T13:55:16.507Z,98603.00
2018-09-21T13:57:44.678Z,98612.00
2018-09-21T14:00:12.998Z,98618.00
2018-09-21T14:02:42.035Z,98626.00
2018-09-21T14:05:10.281Z,98626.00
2018-09-21T14:07:39.319Z,98623.00
2018-09-21T14:10:07.527Z,98625.00
2018-09-21T14:12:35.836Z,98624.00
2018-09-21T14:15:04.049Z,98637.00
2018-09-21T14:17:32.193Z,98645.00
2018-09-21T14:20:00.522Z,98649.00
2018-09-21T14:22:28.744Z,98652.00
2018-09-21T14:24:57.520Z,98656.00
2018-09-21T14:27:25.784Z,98716.00
2018-09-21T14:29:54.027Z,98779.00
2018-09-21T14:32:22.394Z,98770.00
2018-09-21T14:34:51.037Z,98777.00
2018-09-21T14:37:19.282Z,98787.00
2018-09-21T14:39:47.917Z,98821.00
2018-09-21T14:42:16.249Z,98832.00
2018-09-21T14:44:44.583Z,98846.00
2018-09-21T14:47:12.970Z,98871.00
2018-09-21T14:49:41.222Z,98864.00
2018-09-21T14:52:10.101Z,98860.00
2018-09-21T14:54:38.631Z,98866.00
2018-09-21T14:57:07.214Z,98865.00
2018-09-21T14:59:35.582Z,98862.00
2018-09-21T15:02:03.872Z,98889.00
2018-09-21T15:04:32.232Z,98895.00
2018-09-21T15:07:00.639Z,98906.00
2018-09-21T15:09:28.804Z,98883.00
2018-09-21T15:11:57.120Z,98935.00
2018-09-21T15:14:25.520Z,98986.00
2018-09-21T15:16:53.779Z,98986.00
2018-09-21T15:19:22.117Z,98998.00
2018-09-21T15:21:50.396Z,98981.00
2018-09-21T15:24:18.756Z,98998.00
2018-09-21T15:26:47.068Z,98982.00
2018-09-21T15:29:15.364Z,98981.00
2018-09-21T15:31:43.599Z,98973.00
2018-09-21T15:34:11.801Z,98979.00
2018-09-21T15:36:40.107Z,99000.00
2018-09-21T15:39:10.820Z,98997.00
2018-09-21T15:41:39.509Z,99020.00
2018-09-21T15:44:07.759Z,98996.00
2018-09-21T15:46:36.280Z,99008.00
2018-09-21T15:49:05.103Z,99012.00
2018-09-21T15:51:34.063Z,99023.00
2018-09-21T15:54:02.270Z,99027.00
2018-09-21T15:56:31.381Z,99033.00
2018-09-21T15:58:59.851Z,99048.00
2018-09-21T16:01:28.114Z,99030.00
2018-09-21T16:03:56.203Z,99035.00
2018-09-21T16:06:24.324Z,99039.00
2018-09-21T16:08:52.579Z,99032.00
2018-09-21T16:11:20.637Z,99021.00
2018-09-21T16:13:49.018Z,99007.00
2018-09-21T16:16:17.333Z,99005.00
2018-09-21T16:18:45.537Z,99016.00
2018-09-21T16:21:13.714Z,99017.00
2018-09-21T16:23:42.004Z,99019.00
2018-09-21T16:26:10.285Z,99022.00
2018-09-21T16:28:38.566Z,99032.00
2018-09-21T16:31:06.989Z,99043.00
2018-09-21T16:33:35.113Z,99047.00
2018-09-21T16:36:03.416Z,99043.00
2018-09-21T16:38:32.332Z,99049.00
2018-09-21T16:41:00.400Z,99065.00
2018-09-21T16:43:28.612Z,99075.00
2018-09-21T16:45:56.947Z,99092.00
2018-09-21T16:48:25.084Z,99088.00
2018-09-21T16:50:53.335Z,99082.00
2018-09-21T16:53:22.399Z,99077.00
2018-09-21T16:55:50.590Z,99083.00
2018-09-21T16:58:18.861Z,99089.00
2018-09-21T17:00:47.202Z,99107.00
2018-09-21T17:03:15.370Z,99093.00
2018-09-21T17:05:43.518Z,99104.00
2018-09-21T17:08:11.725Z,99075.00
2018-09-21T17:10:39.858Z,99115.00
2018-09-21T17:13:07.934Z,99118.00
2018-09-21T17:15:36.154Z,99139.00
2018-09-21T17:18:04.409Z,99145.00
2018-09-21T17:20:32.500Z,99149.00
2018-09-21T17:23:00.633Z,99155.00
2018-09-21T17:25:29.107Z,99161.00
2018-09-21T17:27:57.211Z,99155.00
2018-09-21T17:30:25.362Z,99176.00
2018-09-21T17:32:53.909Z,99191.00
2018-09-21T17:35:22.436Z,99191.00
2018-09-21T17:37:50.558Z,99199.00
2018-09-21T17:40:18.686Z,99208.00
2018-09-21T17:42:46.843Z,99211.00
2018-09-21T17:45:15.008Z,99226.00
2018-09-21T17:47:43.366Z,99222.00
2018-09-21T17:50:11.573Z,99225.00
2018-09-21T17:52:39.812Z,99234.00
2018-09-21T17:55:09.111Z,99237.00
2018-09-21T17:57:37.386Z,99243.00
2018-09-21T18:00:05.647Z,99246.00
2018-09-21T18:02:33.787Z,99258.00
2018-09-21T18:05:02.101Z,99264.00
2018-09-21T18:07:30.391Z,99264.00
2018-09-21T18:09:58.543Z,99273.00
2018-09-21T18:12:26.745Z,99288.00
2018-09-21T18:14:54.878Z,99292.00
2018-09-21T18:17:23.907Z,99292.00
2018-09-21T18:19:52.130Z,99303.00
2018-09-21T18:22:20.305Z,99314.00
2018-09-21T18:24:48.833Z,99325.00
2018-09-21T18:27:17.793Z,99325.00
2018-09-21T18:29:45.935Z,99318.00
2018-09-21T18:32:14.145Z,99319.00
2018-09-21T18:34:42.346Z,99324.00
2018-09-21T18:37:10.520Z,99324.00
2018-09-21T18:39:38.870Z,99326.00
2018-09-21T18:42:07.092Z,99329.00
2018-09-21T18:44:35.602Z,99332.00
2018-09-21T18:47:04.129Z,99339.00
2018-09-21T18:49:32.247Z,99343.00
2018-09-21T18:52:00.440Z,99353.00
2018-09-21T18:54:29.428Z,99354.00
2018-09-21T18:56:57.787Z,99357.00
2018-09-21T18:59:26.069Z,99360.00
2018-09-21T19:01:54.830Z,99368.00
2018-09-21T19:04:23.625Z,99364.00
2018-09-21T19:06:51.744Z,99364.00
2018-09-21T19:09:20.071Z,99373.00
2018-09-21T19:11:48.160Z,99376.00
2018-09-21T19:14:17.512Z,99379.00
2018-09-21T19:16:45.657Z,99383.00
2018-09-21T19:19:13.746Z,99390.00
2018-09-21T19:21:43.143Z,99384.00
2018-09-21T19:24:11.596Z,99389.00
2018-09-21T19:26:39.826Z,99397.00
2018-09-21T19:29:07.846Z,99396.00
2018-09-21T19:31:36.599Z,99404.00
2018-09-21T19:34:04.679Z,99411.00
2018-09-21T19:36:32.856Z,99407.00
2018-09-21T19:39:01.159Z,99414.00
2018-09-21T19:41:29.379Z,99426.00
2018-09-21T19:43:57.737Z,99430.00
2018-09-21T19:46:26.017Z,99438.00
2018-09-21T19:48:54.151Z,99442.00
2018-09-21T19:51:22.278Z,99448.00
2018-09-21T19:53:50.510Z,99446.00
2018-09-21T19:56:18.893Z,99457.00
2018-09-21T19:58:47.066Z,99459.00
2018-09-21T20:01:15.335Z,99458.00
2018-09-21T20:03:43.602Z,99465.00
2018-09-21T20:06:11.907Z,99468.00
2018-09-21T20:08:40.135Z,99475.00
2018-09-21T20:11:08.438Z,99479.00
2018-09-21T20:13:36.675Z,99483.00
2018-09-21T20:16:04.874Z,99489.00
2018-09-21T20:18:33.731Z,99490.00
2018-09-21T20:21:01.869Z,99492.00
2018-09-21T20:23:30.045Z,99504.00
2018-09-21T20:25:58.250Z,99497.00
2018-09-21T20:28:26.470Z,99501.00
2018-09-21T20:31:00.317Z,99504.00
2018-09-21T20:33:30.136Z,99506.00
2018-09-21T20:35:59.022Z,99511.00
2018-09-21T20:38:28.053Z,99511.00
2018-09-21T20:40:56.738Z,99514.00
2018-09-21T20:43:25.154Z,99506.00
2018-09-21T20:45:54.196Z,99520.00
2018-09-21T20:48:22.851Z,99521.00
2018-09-21T20:50:51.297Z,99529.00
2018-09-21T20:53:19.486Z,99536.00
2018-09-21T20:55:47.571Z,99548.00
2018-09-21T20:58:15.704Z,99550.00
2018-09-21T21:00:43.874Z,99541.00
2018-09-21T21:03:11.978Z,99551.00
2018-09-21T21:05:40.175Z,99558.00
2018-09-21T21:08:08.346Z,99557.00
2018-09-21T21:10:36.665Z,99565.00
2018-09-21T21:13:04.797Z,99572.00
2018-09-21T21:15:32.989Z,99571.00
2018-09-21T21:18:01.266Z,99571.00
2018-09-21T21:20:29.518Z,99582.00
2018-09-21T21:22:57.685Z,99594.00
2018-09-21T21:25:25.925Z,99594.00
2018-09-21T21:27:54.122Z,99603.00
2018-09-21T21:30:22.208Z,99609.00
2018-09-21T21:32:50.343Z,99610.00
2018-09-21T21:35:18.532Z,99614.00
2018-09-21T21:37:46.685Z,99616.00
2018-09-21T21:40:15.120Z,99618.00
2018-09-21T21:42:43.299Z,99626.00
2018-09-21T21:45:11.475Z,99625.00
2018-09-21T21:47:39.579Z,99627.00
2018-09-21T21:50:08.036Z,99630.00
2018-09-21T21:52:36.253Z,99637.00
2018-09-21T21:55:04.604Z,99634.00
2018-09-21T21:57:32.920Z,99635.00
2018-09-21T22:00:01.259Z,99640.00
2018-09-21T22:02:34.113Z,99641.00
2018-09-21T22:05:02.361Z,99646.00
2018-09-21T22:07:33.821Z,99644.00
2018-09-21T22:10:04.010Z,99652.00
2018-09-21T22:12:37.765Z,99663.00
2018-09-21T22:15:10.894Z,99668.00
2018-09-21T22:17:39.225Z,99665.00
2018-09-21T22:20:07.369Z,99662.00
2018-09-21T22:22:35.660Z,99665.00
2018-09-21T22:25:03.944Z,99663.00
2018-09-21T22:27:32.199Z,99662.00
2018-09-21T22:30:00.438Z,99661.00
2018-09-21T22:32:28.700Z,99668.00
2018-09-21T22:34:57.042Z,99662.00
2018-09-21T22:37:25.709Z,99676.00
2018-09-21T22:39:54.005Z,99673.00
2018-09-21T22:42:22.240Z,99672.00
2018-09-21T22:44:50.424Z,99673.00
2018-09-21T22:47:18.575Z,99674.00
2018-09-21T22:49:46.733Z,99675.00
2018-09-21T22:52:14.973Z,99672.00
2018-09-21T22:54:43.180Z,99679.00
2018-09-21T22:57:11.387Z,99682.00
2018-09-21T22:59:40.188Z,99685.00
2018-09-21T23:02:08.609Z,99686.00
2018-09-21T23:04:36.715Z,99685.00
2018-09-21T23:07:04.927Z,99694.00
2018-09-21T23:09:33.037Z,99699.00
2018-09-21T23:12:01.112Z,99696.00
2018-09-21T23:14:29.264Z,99700.00
2018-09-21T23:16:57.473Z,99700.00
2018-09-21T23:19:25.753Z,99699.00
2018-09-21T23:21:54.080Z,99698.00
2018-09-21T23:24:22.177Z,99702.00
2018-09-21T23:26:51.004Z,99708.00
2018-09-21T23:29:19.298Z,99716.00
2018-09-21T23:31:47.480Z,99714.00
2018-09-21T23:34:15.563Z,99723.00
2018-09-21T23:36:43.650Z,99723.00
2018-09-21T23:39:12.440Z,99733.00
2018-09-21T23:41:40.509Z,99734.00
2018-09-21T23:44:09.056Z,99732.00
2018-09-21T23:46:37.332Z,99733.00
2018-09-21T23:49:05.774Z,99742.00
2018-09-21T23:51:34.039Z,99743.00
2018-09-21T23:54:02.318Z,99741.00
2018-09-21T23:56:30.637Z,99745.00
2018-09-21T23:58:58.938Z,99756.00
